sensor_id;sensor_type;location;lat;lon;timestamp;noise_LAeq;noise_LA_min;noise_LA_max;noise_LA01;noise_LA95
60503;Laerm;51448;51.660;5.824;2023-07-13T00:01:11;45.99;28.29;57.76;;
60503;Laerm;51448;51.660;5.824;2023-07-13T00:03:39;45.74;28.55;57.49;;
60503;Laerm;51448;51.660;5.824;2023-07-13T00:06:10;45.53;28.02;57.69;;
60503;Laerm;51448;51.660;5.824;2023-07-13T00:08:39;46.69;28.70;58.09;;
60503;Laerm;51448;51.660;5.824;2023-07-13T00:11:06;45.91;28.57;57.47;;
60503;Laerm;51448;51.660;5.824;2023-07-13T00:13:35;45.60;28.25;57.67;;
60503;Laerm;51448;51.660;5.824;2023-07-13T00:16:05;45.25;28.42;57.75;;
60503;Laerm;51448;51.660;5.824;2023-07-13T00:18:33;45.92;28.48;57.35;;
60503;Laerm;51448;51.660;5.824;2023-07-13T00:21:00;45.92;28.49;57.73;;
60503;Laerm;51448;51.660;5.824;2023-07-13T00:23:36;30.97;28.45;50.95;;
60503;Laerm;51448;51.660;5.824;2023-07-13T00:26:09;45.59;28.39;57.51;;
60503;Laerm;51448;51.660;5.824;2023-07-13T00:28:39;46.14;28.11;57.45;;
60503;Laerm;51448;51.660;5.824;2023-07-13T00:31:09;46.12;28.50;57.46;;
60503;Laerm;51448;51.660;5.824;2023-07-13T00:33:49;45.58;28.13;57.89;;
60503;Laerm;51448;51.660;5.824;2023-07-13T00:36:17;45.56;28.44;57.30;;
60503;Laerm;51448;51.660;5.824;2023-07-13T00:38:45;45.50;28.21;56.80;;
60503;Laerm;51448;51.660;5.824;2023-07-13T00:41:13;46.99;28.33;57.51;;
60503;Laerm;51448;51.660;5.824;2023-07-13T00:43:41;45.97;28.55;57.14;;
60503;Laerm;51448;51.660;5.824;2023-07-13T00:46:25;45.62;28.56;57.32;;
60503;Laerm;51448;51.660;5.824;2023-07-13T00:48:57;45.36;27.98;57.03;;
60503;Laerm;51448;51.660;5.824;2023-07-13T00:51:37;45.27;28.35;56.97;;
60503;Laerm;51448;51.660;5.824;2023-07-13T00:54:10;45.71;28.09;57.73;;
60503;Laerm;51448;51.660;5.824;2023-07-13T00:56:41;45.74;28.25;56.71;;
60503;Laerm;51448;51.660;5.824;2023-07-13T00:59:13;45.59;28.02;57.06;;
60503;Laerm;51448;51.660;5.824;2023-07-13T01:01:42;45.42;28.15;57.10;;
60503;Laerm;51448;51.660;5.824;2023-07-13T01:04:10;45.67;28.41;56.96;;
60503;Laerm;51448;51.660;5.824;2023-07-13T01:06:40;46.31;28.15;57.41;;
60503;Laerm;51448;51.660;5.824;2023-07-13T01:09:08;46.17;28.25;57.28;;
60503;Laerm;51448;51.660;5.824;2023-07-13T01:11:40;45.74;28.25;57.65;;
60503;Laerm;51448;51.660;5.824;2023-07-13T01:14:09;45.99;28.15;57.38;;
60503;Laerm;51448;51.660;5.824;2023-07-13T01:16:39;45.81;27.98;57.49;;
60503;Laerm;51448;51.660;5.824;2023-07-13T01:21:53;45.63;28.09;56.66;;
60503;Laerm;51448;51.660;5.824;2023-07-13T01:24:20;46.20;28.35;57.32;;
60503;Laerm;51448;51.660;5.824;2023-07-13T01:26:49;46.20;28.18;57.57;;
60503;Laerm;51448;51.660;5.824;2023-07-13T01:29:17;46.05;28.40;57.64;;
60503;Laerm;51448;51.660;5.824;2023-07-13T01:31:45;45.53;28.47;56.87;;
60503;Laerm;51448;51.660;5.824;2023-07-13T01:34:14;46.26;28.46;57.66;;
60503;Laerm;51448;51.660;5.824;2023-07-13T01:36:41;45.53;28.65;57.00;;
60503;Laerm;51448;51.660;5.824;2023-07-13T01:39:09;46.03;28.83;57.66;;
60503;Laerm;51448;51.660;5.824;2023-07-13T01:41:37;45.74;28.25;57.39;;
60503;Laerm;51448;51.660;5.824;2023-07-13T01:44:05;45.68;28.04;57.22;;
60503;Laerm;51448;51.660;5.824;2023-07-13T01:46:32;48.44;28.47;61.72;;
60503;Laerm;51448;51.660;5.824;2023-07-13T01:49:00;46.10;28.26;57.68;;
60503;Laerm;51448;51.660;5.824;2023-07-13T01:51:27;45.65;28.27;57.19;;
60503;Laerm;51448;51.660;5.824;2023-07-13T01:53:55;45.76;28.77;57.08;;
60503;Laerm;51448;51.660;5.824;2023-07-13T01:56:23;45.93;28.69;57.21;;
60503;Laerm;51448;51.660;5.824;2023-07-13T01:58:52;45.58;28.44;56.84;;
60503;Laerm;51448;51.660;5.824;2023-07-13T02:01:20;46.38;28.34;57.25;;
60503;Laerm;51448;51.660;5.824;2023-07-13T02:03:48;46.13;28.48;57.44;;
60503;Laerm;51448;51.660;5.824;2023-07-13T02:06:15;45.84;28.53;57.15;;
60503;Laerm;51448;51.660;5.824;2023-07-13T02:08:44;45.95;28.36;57.57;;
60503;Laerm;51448;51.660;5.824;2023-07-13T02:11:12;45.86;27.93;56.67;;
60503;Laerm;51448;51.660;5.824;2023-07-13T02:13:40;46.07;28.43;57.19;;
60503;Laerm;51448;51.660;5.824;2023-07-13T02:16:08;46.80;28.63;57.13;;
60503;Laerm;51448;51.660;5.824;2023-07-13T02:18:36;45.96;28.54;56.90;;
60503;Laerm;51448;51.660;5.824;2023-07-13T02:21:05;47.03;28.66;56.93;;
60503;Laerm;51448;51.660;5.824;2023-07-13T02:23:33;46.25;29.53;57.52;;
60503;Laerm;51448;51.660;5.824;2023-07-13T02:26:03;46.14;28.99;57.12;;
60503;Laerm;51448;51.660;5.824;2023-07-13T02:28:31;45.96;29.06;57.32;;
60503;Laerm;51448;51.660;5.824;2023-07-13T02:31:12;46.39;28.87;56.91;;
60503;Laerm;51448;51.660;5.824;2023-07-13T02:33:40;45.88;29.36;57.04;;
60503;Laerm;51448;51.660;5.824;2023-07-13T02:36:09;45.91;28.60;56.96;;
60503;Laerm;51448;51.660;5.824;2023-07-13T02:38:37;45.68;28.83;56.92;;
60503;Laerm;51448;51.660;5.824;2023-07-13T02:41:07;46.25;28.66;57.21;;
60503;Laerm;51448;51.660;5.824;2023-07-13T02:43:37;45.97;28.81;57.32;;
60503;Laerm;51448;51.660;5.824;2023-07-13T02:46:05;45.72;28.26;56.98;;
60503;Laerm;51448;51.660;5.824;2023-07-13T02:48:38;45.62;28.84;56.79;;
60503;Laerm;51448;51.660;5.824;2023-07-13T02:51:07;47.04;29.03;57.19;;
60503;Laerm;51448;51.660;5.824;2023-07-13T02:53:35;46.01;28.97;56.70;;
60503;Laerm;51448;51.660;5.824;2023-07-13T02:56:05;46.75;29.25;57.08;;
60503;Laerm;51448;51.660;5.824;2023-07-13T02:58:33;45.78;29.22;56.73;;
60503;Laerm;51448;51.660;5.824;2023-07-13T03:01:10;48.50;29.00;65.47;;
60503;Laerm;51448;51.660;5.824;2023-07-13T03:03:38;45.99;29.07;56.93;;
60503;Laerm;51448;51.660;5.824;2023-07-13T03:06:07;46.27;29.89;57.25;;
60503;Laerm;51448;51.660;5.824;2023-07-13T03:08:44;46.03;29.48;57.10;;
60503;Laerm;51448;51.660;5.824;2023-07-13T03:11:19;45.68;29.90;56.91;;
60503;Laerm;51448;51.660;5.824;2023-07-13T03:13:53;45.95;29.94;57.22;;
60503;Laerm;51448;51.660;5.824;2023-07-13T03:16:22;46.25;29.38;57.06;;
60503;Laerm;51448;51.660;5.824;2023-07-13T03:18:53;46.02;30.05;57.59;;
60503;Laerm;51448;51.660;5.824;2023-07-13T03:21:22;47.42;30.63;57.89;;
60503;Laerm;51448;51.660;5.824;2023-07-13T03:23:50;46.05;30.37;56.88;;
60503;Laerm;51448;51.660;5.824;2023-07-13T03:26:20;46.16;29.73;57.18;;
60503;Laerm;51448;51.660;5.824;2023-07-13T03:28:48;46.26;30.11;56.95;;
60503;Laerm;51448;51.660;5.824;2023-07-13T03:31:29;46.58;31.56;57.22;;
60503;Laerm;51448;51.660;5.824;2023-07-13T03:33:57;47.09;31.09;57.44;;
60503;Laerm;51448;51.660;5.824;2023-07-13T03:36:28;46.64;30.82;57.12;;
60503;Laerm;51448;51.660;5.824;2023-07-13T03:39:01;46.29;30.46;56.82;;
60503;Laerm;51448;51.660;5.824;2023-07-13T03:41:37;47.38;31.09;63.62;;
60503;Laerm;51448;51.660;5.824;2023-07-13T03:44:06;50.02;31.74;66.09;;
60503;Laerm;51448;51.660;5.824;2023-07-13T03:46:34;46.48;31.25;57.18;;
60503;Laerm;51448;51.660;5.824;2023-07-13T03:49:05;46.04;31.21;57.07;;
60503;Laerm;51448;51.660;5.824;2023-07-13T03:51:33;47.10;31.68;57.97;;
60503;Laerm;51448;51.660;5.824;2023-07-13T03:54:01;47.37;31.53;61.12;;
60503;Laerm;51448;51.660;5.824;2023-07-13T03:56:30;50.40;31.24;71.47;;
60503;Laerm;51448;51.660;5.824;2023-07-13T03:59:01;52.69;31.10;74.92;;
60503;Laerm;51448;51.660;5.824;2023-07-13T04:01:30;49.85;31.42;69.49;;
60503;Laerm;51448;51.660;5.824;2023-07-13T04:03:59;48.74;32.04;69.16;;
60503;Laerm;51448;51.660;5.824;2023-07-13T04:06:31;47.92;31.18;69.36;;
60503;Laerm;51448;51.660;5.824;2023-07-13T04:09:02;54.41;30.84;71.49;;
60503;Laerm;51448;51.660;5.824;2023-07-13T04:11:34;48.91;31.63;67.65;;
60503;Laerm;51448;51.660;5.824;2023-07-13T04:14:04;52.47;32.20;74.61;;
60503;Laerm;51448;51.660;5.824;2023-07-13T04:16:34;47.19;32.04;58.75;;
60503;Laerm;51448;51.660;5.824;2023-07-13T04:19:01;49.24;32.20;73.03;;
60503;Laerm;51448;51.660;5.824;2023-07-13T04:21:31;50.42;32.10;71.34;;
60503;Laerm;51448;51.660;5.824;2023-07-13T04:23:59;48.49;32.16;57.36;;
60503;Laerm;51448;51.660;5.824;2023-07-13T04:26:27;49.74;32.59;71.91;;
60503;Laerm;51448;51.660;5.824;2023-07-13T04:28:56;48.30;32.91;61.36;;
60503;Laerm;51448;51.660;5.824;2023-07-13T04:31:23;50.31;33.07;59.81;;
60503;Laerm;51448;51.660;5.824;2023-07-13T04:33:51;46.97;32.57;56.76;;
60503;Laerm;51448;51.660;5.824;2023-07-13T04:36:19;47.07;32.11;57.21;;
60503;Laerm;51448;51.660;5.824;2023-07-13T04:38:47;48.92;33.30;59.94;;
60503;Laerm;51448;51.660;5.824;2023-07-13T04:41:16;48.08;33.39;58.29;;
60503;Laerm;51448;51.660;5.824;2023-07-13T04:43:43;48.81;33.88;58.62;;
60503;Laerm;51448;51.660;5.824;2023-07-13T04:46:15;49.10;33.39;63.17;;
60503;Laerm;51448;51.660;5.824;2023-07-13T04:48:45;49.62;35.28;58.94;;
60503;Laerm;51448;51.660;5.824;2023-07-13T04:51:13;49.66;34.47;60.09;;
60503;Laerm;51448;51.660;5.824;2023-07-13T04:53:40;48.56;33.83;57.20;;
60503;Laerm;51448;51.660;5.824;2023-07-13T04:56:08;50.95;35.33;63.55;;
60503;Laerm;51448;51.660;5.824;2023-07-13T04:58:36;49.26;34.78;56.98;;
60503;Laerm;51448;51.660;5.824;2023-07-13T05:01:05;50.08;34.10;61.01;;
60503;Laerm;51448;51.660;5.824;2023-07-13T05:03:34;49.05;34.52;59.15;;
60503;Laerm;51448;51.660;5.824;2023-07-13T05:06:08;50.63;34.94;62.50;;
60503;Laerm;51448;51.660;5.824;2023-07-13T05:08:38;50.35;35.07;59.86;;
60503;Laerm;51448;51.660;5.824;2023-07-13T05:11:06;49.40;34.53;60.22;;
60503;Laerm;51448;51.660;5.824;2023-07-13T05:13:35;49.47;36.29;59.52;;
60503;Laerm;51448;51.660;5.824;2023-07-13T05:16:05;48.58;35.31;59.28;;
60503;Laerm;51448;51.660;5.824;2023-07-13T05:18:36;50.14;36.44;58.52;;
60503;Laerm;51448;51.660;5.824;2023-07-13T05:21:09;48.62;34.80;60.29;;
60503;Laerm;51448;51.660;5.824;2023-07-13T05:23:39;50.03;36.67;61.51;;
60503;Laerm;51448;51.660;5.824;2023-07-13T05:26:09;49.37;36.15;59.84;;
60503;Laerm;51448;51.660;5.824;2023-07-13T05:28:38;47.10;34.57;57.41;;
60503;Laerm;51448;51.660;5.824;2023-07-13T05:31:08;50.19;33.92;60.34;;
60503;Laerm;51448;51.660;5.824;2023-07-13T05:33:37;48.36;34.94;57.85;;
60503;Laerm;51448;51.660;5.824;2023-07-13T05:36:05;51.35;39.28;59.95;;
60503;Laerm;51448;51.660;5.824;2023-07-13T05:38:34;51.33;39.82;64.68;;
60503;Laerm;51448;51.660;5.824;2023-07-13T05:41:02;53.54;39.82;71.65;;
60503;Laerm;51448;51.660;5.824;2023-07-13T05:43:34;51.28;40.50;66.52;;
60503;Laerm;51448;51.660;5.824;2023-07-13T05:46:01;50.72;40.34;59.19;;
60503;Laerm;51448;51.660;5.824;2023-07-13T05:48:29;51.17;39.99;58.93;;
60503;Laerm;51448;51.660;5.824;2023-07-13T05:50:57;51.32;41.38;64.68;;
60503;Laerm;51448;51.660;5.824;2023-07-13T05:53:25;55.07;39.80;70.94;;
60503;Laerm;51448;51.660;5.824;2023-07-13T05:55:54;51.56;40.92;60.43;;
60503;Laerm;51448;51.660;5.824;2023-07-13T05:58:22;51.49;40.51;61.75;;
60503;Laerm;51448;51.660;5.824;2023-07-13T06:01:00;52.23;39.96;67.48;;
60503;Laerm;51448;51.660;5.824;2023-07-13T06:03:29;50.27;41.14;68.09;;
60503;Laerm;51448;51.660;5.824;2023-07-13T06:05:57;50.52;38.80;60.46;;
60503;Laerm;51448;51.660;5.824;2023-07-13T06:08:25;49.98;41.64;67.66;;
60503;Laerm;51448;51.660;5.824;2023-07-13T06:10:53;51.54;39.90;60.69;;
60503;Laerm;51448;51.660;5.824;2023-07-13T06:13:22;52.24;41.24;68.19;;
60503;Laerm;51448;51.660;5.824;2023-07-13T06:15:50;50.96;40.77;64.59;;
60503;Laerm;51448;51.660;5.824;2023-07-13T06:18:17;49.65;38.19;61.10;;
60503;Laerm;51448;51.660;5.824;2023-07-13T06:20:45;49.15;37.35;63.59;;
60503;Laerm;51448;51.660;5.824;2023-07-13T06:23:13;50.27;39.31;67.46;;
60503;Laerm;51448;51.660;5.824;2023-07-13T06:25:40;50.13;40.05;71.26;;
60503;Laerm;51448;51.660;5.824;2023-07-13T06:28:08;50.10;38.24;64.24;;
60503;Laerm;51448;51.660;5.824;2023-07-13T06:30:39;49.81;39.67;63.38;;
60503;Laerm;51448;51.660;5.824;2023-07-13T06:33:07;50.20;37.02;65.21;;
60503;Laerm;51448;51.660;5.824;2023-07-13T06:35:35;54.65;35.26;71.34;;
60503;Laerm;51448;51.660;5.824;2023-07-13T06:38:03;54.77;44.20;69.58;;
60503;Laerm;51448;51.660;5.824;2023-07-13T06:40:30;54.01;43.05;64.24;;
60503;Laerm;51448;51.660;5.824;2023-07-13T06:42:59;53.43;42.66;64.43;;
60503;Laerm;51448;51.660;5.824;2023-07-13T06:45:27;53.16;43.95;62.61;;
60503;Laerm;51448;51.660;5.824;2023-07-13T06:47:55;53.42;42.93;70.92;;
60503;Laerm;51448;51.660;5.824;2023-07-13T06:50:23;53.04;42.28;59.80;;
60503;Laerm;51448;51.660;5.824;2023-07-13T06:52:50;61.48;43.95;80.65;;
60503;Laerm;51448;51.660;5.824;2023-07-13T06:55:18;54.74;43.19;69.61;;
60503;Laerm;51448;51.660;5.824;2023-07-13T06:57:46;51.34;44.55;58.74;;
60503;Laerm;51448;51.660;5.824;2023-07-13T07:00:14;57.45;45.43;75.36;;
60503;Laerm;51448;51.660;5.824;2023-07-13T07:02:42;50.57;42.22;62.42;;
60503;Laerm;51448;51.660;5.824;2023-07-13T07:05:10;52.15;41.07;65.46;;
60503;Laerm;51448;51.660;5.824;2023-07-13T07:07:38;54.06;42.11;64.61;;
60503;Laerm;51448;51.660;5.824;2023-07-13T07:10:06;52.61;45.77;61.98;;
60503;Laerm;51448;51.660;5.824;2023-07-13T07:12:34;52.13;40.84;58.86;;
60503;Laerm;51448;51.660;5.824;2023-07-13T07:15:02;51.40;43.06;58.53;;
60503;Laerm;51448;51.660;5.824;2023-07-13T07:17:30;53.11;44.03;63.05;;
60503;Laerm;51448;51.660;5.824;2023-07-13T07:19:58;50.48;43.29;57.90;;
60503;Laerm;51448;51.660;5.824;2023-07-13T07:22:25;52.39;41.37;65.64;;
60503;Laerm;51448;51.660;5.824;2023-07-13T07:24:54;56.51;37.10;70.48;;
60503;Laerm;51448;51.660;5.824;2023-07-13T07:27:24;47.45;35.25;61.86;;
60503;Laerm;51448;51.660;5.824;2023-07-13T07:29:54;49.81;40.40;72.57;;
60503;Laerm;51448;51.660;5.824;2023-07-13T07:32:42;49.00;38.24;68.95;;
60503;Laerm;51448;51.660;5.824;2023-07-13T07:35:24;46.24;34.93;60.99;;
60503;Laerm;51448;51.660;5.824;2023-07-13T07:37:52;47.26;35.67;60.07;;
60503;Laerm;51448;51.660;5.824;2023-07-13T07:40:19;51.39;34.85;64.22;;
60503;Laerm;51448;51.660;5.824;2023-07-13T07:42:50;46.36;33.90;59.24;;
60503;Laerm;51448;51.660;5.824;2023-07-13T07:45:19;47.75;34.37;61.28;;
60503;Laerm;51448;51.660;5.824;2023-07-13T07:47:47;48.33;35.07;59.26;;
60503;Laerm;51448;51.660;5.824;2023-07-13T07:50:15;45.47;34.96;59.07;;
60503;Laerm;51448;51.660;5.824;2023-07-13T07:52:43;45.79;34.96;56.71;;
60503;Laerm;51448;51.660;5.824;2023-07-13T07:55:11;49.93;35.39;71.14;;
60503;Laerm;51448;51.660;5.824;2023-07-13T07:57:42;47.89;34.49;74.02;;
60503;Laerm;51448;51.660;5.824;2023-07-13T08:00:14;50.00;35.10;65.08;;
60503;Laerm;51448;51.660;5.824;2023-07-13T08:02:47;48.15;34.98;68.42;;
60503;Laerm;51448;51.660;5.824;2023-07-13T08:05:18;47.54;34.09;60.99;;
60503;Laerm;51448;51.660;5.824;2023-07-13T08:07:49;47.10;34.05;61.24;;
60503;Laerm;51448;51.660;5.824;2023-07-13T08:10:17;54.92;34.95;68.90;;
60503;Laerm;51448;51.660;5.824;2023-07-13T08:12:46;47.14;33.77;59.70;;
60503;Laerm;51448;51.660;5.824;2023-07-13T08:15:33;50.14;33.26;62.68;;
60503;Laerm;51448;51.660;5.824;2023-07-13T08:18:01;47.51;34.72;59.01;;
60503;Laerm;51448;51.660;5.824;2023-07-13T08:20:29;46.51;33.57;60.85;;
60503;Laerm;51448;51.660;5.824;2023-07-13T08:22:56;46.56;34.22;60.50;;
60503;Laerm;51448;51.660;5.824;2023-07-13T08:25:24;61.25;33.40;92.45;;
60503;Laerm;51448;51.660;5.824;2023-07-13T08:27:53;44.51;34.43;60.61;;
60503;Laerm;51448;51.660;5.824;2023-07-13T08:30:20;45.65;35.78;65.51;;
60503;Laerm;51448;51.660;5.824;2023-07-13T08:32:49;44.55;34.71;58.85;;
60503;Laerm;51448;51.660;5.824;2023-07-13T08:35:17;43.22;34.37;55.29;;
60503;Laerm;51448;51.660;5.824;2023-07-13T08:37:44;44.87;34.58;69.62;;
60503;Laerm;51448;51.660;5.824;2023-07-13T08:40:13;43.19;32.77;55.98;;
60503;Laerm;51448;51.660;5.824;2023-07-13T08:42:59;44.11;33.27;58.33;;
60503;Laerm;51448;51.660;5.824;2023-07-13T08:45:46;46.07;34.85;69.33;;
60503;Laerm;51448;51.660;5.824;2023-07-13T08:48:21;45.95;35.13;61.63;;
60503;Laerm;51448;51.660;5.824;2023-07-13T08:51:02;43.07;33.95;55.86;;
60503;Laerm;51448;51.660;5.824;2023-07-13T08:53:46;45.60;35.59;57.70;;
60503;Laerm;51448;51.660;5.824;2023-07-13T08:56:24;47.47;36.00;69.11;;
60503;Laerm;51448;51.660;5.824;2023-07-13T08:58:59;45.44;35.04;65.84;;
60503;Laerm;51448;51.660;5.824;2023-07-13T09:02:20;48.90;33.89;67.51;;
60503;Laerm;51448;51.660;5.824;2023-07-13T09:05:04;50.09;37.81;76.74;;
60503;Laerm;51448;51.660;5.824;2023-07-13T09:10:44;52.43;42.77;64.80;;
60503;Laerm;51448;51.660;5.824;2023-07-13T09:13:40;46.49;35.26;65.35;;
60503;Laerm;51448;51.660;5.824;2023-07-13T09:16:12;45.37;33.55;59.81;;
60503;Laerm;51448;51.660;5.824;2023-07-13T09:18:58;47.04;34.20;65.12;;
60503;Laerm;51448;51.660;5.824;2023-07-13T09:21:34;47.99;36.56;66.32;;
60503;Laerm;51448;51.660;5.824;2023-07-13T09:27:27;45.58;38.53;60.59;;
60503;Laerm;51448;51.660;5.824;2023-07-13T09:32:50;47.11;36.86;64.18;;
60503;Laerm;51448;51.660;5.824;2023-07-13T09:35:26;46.74;36.23;60.32;;
60503;Laerm;51448;51.660;5.824;2023-07-13T09:38:11;51.46;37.87;72.52;;
60503;Laerm;51448;51.660;5.824;2023-07-13T09:43:11;47.30;36.02;63.68;;
60503;Laerm;51448;51.660;5.824;2023-07-13T09:45:40;46.18;35.04;57.46;;
60503;Laerm;51448;51.660;5.824;2023-07-13T09:48:15;51.07;33.68;77.40;;
60503;Laerm;51448;51.660;5.824;2023-07-13T09:50:44;47.75;37.31;63.00;;
60503;Laerm;51448;51.660;5.824;2023-07-13T09:53:15;50.44;35.52;67.91;;
60503;Laerm;51448;51.660;5.824;2023-07-13T09:55:47;47.89;36.65;65.55;;
60503;Laerm;51448;51.660;5.824;2023-07-13T09:58:30;45.88;36.02;62.46;;
60503;Laerm;51448;51.660;5.824;2023-07-13T10:01:02;49.19;36.62;70.52;;
60503;Laerm;51448;51.660;5.824;2023-07-13T10:03:36;47.96;38.03;60.80;;
60503;Laerm;51448;51.660;5.824;2023-07-13T10:06:19;45.58;35.97;61.36;;
60503;Laerm;51448;51.660;5.824;2023-07-13T10:08:50;50.21;37.00;67.56;;
60503;Laerm;51448;51.660;5.824;2023-07-13T10:11:22;51.48;36.50;66.79;;
60503;Laerm;51448;51.660;5.824;2023-07-13T10:14:00;46.13;36.58;61.16;;
60503;Laerm;51448;51.660;5.824;2023-07-13T10:16:33;46.43;35.12;68.20;;
60503;Laerm;51448;51.660;5.824;2023-07-13T10:19:12;48.48;37.80;66.62;;
60503;Laerm;51448;51.660;5.824;2023-07-13T10:21:57;47.00;36.98;65.29;;
60503;Laerm;51448;51.660;5.824;2023-07-13T10:24:36;44.93;35.77;69.83;;
60503;Laerm;51448;51.660;5.824;2023-07-13T10:29:55;46.50;34.86;60.07;;
60503;Laerm;51448;51.660;5.824;2023-07-13T10:32:26;46.41;36.55;59.48;;
60503;Laerm;51448;51.660;5.824;2023-07-13T10:34:54;50.66;37.37;69.09;;
60503;Laerm;51448;51.660;5.824;2023-07-13T10:37:30;48.84;37.54;68.99;;
60503;Laerm;51448;51.660;5.824;2023-07-13T10:40:01;50.39;37.05;77.10;;
60503;Laerm;51448;51.660;5.824;2023-07-13T10:42:37;49.27;36.19;63.53;;
60503;Laerm;51448;51.660;5.824;2023-07-13T10:45:20;43.83;33.01;75.19;;
60503;Laerm;51448;51.660;5.824;2023-07-13T10:47:52;46.58;35.85;60.92;;
60503;Laerm;51448;51.660;5.824;2023-07-13T10:50:26;48.87;38.40;64.52;;
60503;Laerm;51448;51.660;5.824;2023-07-13T10:53:03;47.53;37.65;65.35;;
60503;Laerm;51448;51.660;5.824;2023-07-13T10:55:59;45.38;36.62;58.08;;
60503;Laerm;51448;51.660;5.824;2023-07-13T10:58:40;52.44;37.94;71.41;;
60503;Laerm;51448;51.660;5.824;2023-07-13T11:01:17;52.78;38.85;69.04;;
60503;Laerm;51448;51.660;5.824;2023-07-13T11:04:03;47.10;37.23;66.40;;
60503;Laerm;51448;51.660;5.824;2023-07-13T11:06:38;45.99;36.53;63.63;;
60503;Laerm;51448;51.660;5.824;2023-07-13T11:09:40;48.35;36.70;61.16;;
60503;Laerm;51448;51.660;5.824;2023-07-13T11:17:35;49.56;37.98;68.63;;
60503;Laerm;51448;51.660;5.824;2023-07-13T11:20:22;46.39;36.55;58.03;;
60503;Laerm;51448;51.660;5.824;2023-07-13T11:25:40;48.80;38.89;61.61;;
60503;Laerm;51448;51.660;5.824;2023-07-13T11:36:13;47.93;34.76;60.25;;
60503;Laerm;51448;51.660;5.824;2023-07-13T11:38:49;47.62;33.88;62.95;;
60503;Laerm;51448;51.660;5.824;2023-07-13T11:41:26;47.06;34.91;58.67;;
60503;Laerm;51448;51.660;5.824;2023-07-13T11:46:49;46.25;37.32;59.63;;
60503;Laerm;51448;51.660;5.824;2023-07-13T11:49:25;47.21;35.86;57.94;;
60503;Laerm;51448;51.660;5.824;2023-07-13T11:51:56;48.28;36.05;60.68;;
60503;Laerm;51448;51.660;5.824;2023-07-13T11:54:32;48.85;36.93;63.26;;
60503;Laerm;51448;51.660;5.824;2023-07-13T11:57:10;49.34;37.92;67.62;;
60503;Laerm;51448;51.660;5.824;2023-07-13T11:59:44;52.62;45.38;60.27;;
60503;Laerm;51448;51.660;5.824;2023-07-13T12:02:31;49.40;40.25;61.92;;
60503;Laerm;51448;51.660;5.824;2023-07-13T12:05:03;65.44;41.09;83.00;;
60503;Laerm;51448;51.660;5.824;2023-07-13T12:07:33;55.68;39.00;65.58;;
60503;Laerm;51448;51.660;5.824;2023-07-13T12:10:28;50.48;37.17;65.42;;
60503;Laerm;51448;51.660;5.824;2023-07-13T12:13:05;53.34;35.89;67.91;;
60503;Laerm;51448;51.660;5.824;2023-07-13T12:15:44;53.87;42.91;64.13;;
60503;Laerm;51448;51.660;5.824;2023-07-13T12:18:22;51.29;35.84;63.01;;
60503;Laerm;51448;51.660;5.824;2023-07-13T12:20:57;51.33;38.26;60.91;;
60503;Laerm;51448;51.660;5.824;2023-07-13T12:23:36;48.64;35.43;58.22;;
60503;Laerm;51448;51.660;5.824;2023-07-13T12:26:06;46.91;34.36;63.97;;
60503;Laerm;51448;51.660;5.824;2023-07-13T12:28:44;46.26;34.45;59.64;;
60503;Laerm;51448;51.660;5.824;2023-07-13T12:31:36;46.41;35.12;57.16;;
60503;Laerm;51448;51.660;5.824;2023-07-13T12:34:16;55.09;35.59;66.46;;
60503;Laerm;51448;51.660;5.824;2023-07-13T12:36:58;57.66;35.28;75.55;;
60503;Laerm;51448;51.660;5.824;2023-07-13T12:39:46;60.53;33.98;75.85;;
60503;Laerm;51448;51.660;5.824;2023-07-13T12:42:31;60.86;44.68;72.46;;
60503;Laerm;51448;51.660;5.824;2023-07-13T12:45:21;50.85;33.92;63.80;;
60503;Laerm;51448;51.660;5.824;2023-07-13T12:47:54;45.44;32.53;55.82;;
60503;Laerm;51448;51.660;5.824;2023-07-13T12:50:33;46.03;31.29;56.11;;
60503;Laerm;51448;51.660;5.824;2023-07-13T12:53:05;53.61;33.68;68.44;;
60503;Laerm;51448;51.660;5.824;2023-07-13T12:55:47;47.65;34.42;59.03;;
60503;Laerm;51448;51.660;5.824;2023-07-13T13:01:00;43.77;32.29;53.79;;
60503;Laerm;51448;51.660;5.824;2023-07-13T13:03:38;46.78;35.50;57.19;;
60503;Laerm;51448;51.660;5.824;2023-07-13T13:06:27;46.19;34.41;57.42;;
60503;Laerm;51448;51.660;5.824;2023-07-13T13:08:58;52.55;35.56;65.16;;
60503;Laerm;51448;51.660;5.824;2023-07-13T13:11:30;47.32;34.22;55.50;;
60503;Laerm;51448;51.660;5.824;2023-07-13T13:13:58;46.93;33.83;63.38;;
60503;Laerm;51448;51.660;5.824;2023-07-13T13:18:56;55.70;38.75;69.02;;
60503;Laerm;51448;51.660;5.824;2023-07-13T13:21:26;54.90;35.28;72.25;;
60503;Laerm;51448;51.660;5.824;2023-07-13T13:23:54;54.55;35.46;70.23;;
60503;Laerm;51448;51.660;5.824;2023-07-13T13:26:23;54.93;36.44;69.53;;
60503;Laerm;51448;51.660;5.824;2023-07-13T13:28:50;54.80;35.37;68.81;;
60503;Laerm;51448;51.660;5.824;2023-07-13T13:31:21;57.90;42.86;72.72;;
60503;Laerm;51448;51.660;5.824;2023-07-13T13:33:49;52.97;37.27;66.83;;
60503;Laerm;51448;51.660;5.824;2023-07-13T13:36:22;56.71;35.94;73.80;;
60503;Laerm;51448;51.660;5.824;2023-07-13T13:38:51;56.14;38.97;70.69;;
60503;Laerm;51448;51.660;5.824;2023-07-13T13:41:18;53.06;37.84;74.90;;
60503;Laerm;51448;51.660;5.824;2023-07-13T13:43:46;52.88;37.41;69.12;;
60503;Laerm;51448;51.660;5.824;2023-07-13T13:46:18;49.74;37.41;63.15;;
60503;Laerm;51448;51.660;5.824;2023-07-13T13:48:48;46.43;36.21;56.10;;
60503;Laerm;51448;51.660;5.824;2023-07-13T13:51:20;47.90;37.12;57.81;;
60503;Laerm;51448;51.660;5.824;2023-07-13T13:53:50;59.53;37.31;75.74;;
60503;Laerm;51448;51.660;5.824;2023-07-13T13:56:19;56.91;37.39;72.14;;
60503;Laerm;51448;51.660;5.824;2023-07-13T13:58:47;48.94;36.48;60.76;;
60503;Laerm;51448;51.660;5.824;2023-07-13T14:01:21;44.78;35.17;57.39;;
60503;Laerm;51448;51.660;5.824;2023-07-13T14:03:50;46.77;36.62;60.44;;
60503;Laerm;51448;51.660;5.824;2023-07-13T14:06:20;47.57;36.87;64.81;;
60503;Laerm;51448;51.660;5.824;2023-07-13T14:08:48;46.58;36.68;62.43;;
60503;Laerm;51448;51.660;5.824;2023-07-13T14:11:20;46.75;36.41;57.71;;
60503;Laerm;51448;51.660;5.824;2023-07-13T14:13:50;45.70;35.80;56.19;;
60503;Laerm;51448;51.660;5.824;2023-07-13T14:16:21;47.58;35.96;65.56;;
60503;Laerm;51448;51.660;5.824;2023-07-13T14:18:51;47.86;38.09;63.38;;
60503;Laerm;51448;51.660;5.824;2023-07-13T14:21:22;48.59;38.94;60.41;;
60503;Laerm;51448;51.660;5.824;2023-07-13T14:23:50;46.14;36.78;63.26;;
60503;Laerm;51448;51.660;5.824;2023-07-13T14:26:22;52.83;37.28;69.37;;
60503;Laerm;51448;51.660;5.824;2023-07-13T14:28:55;51.88;38.48;68.14;;
60503;Laerm;51448;51.660;5.824;2023-07-13T14:31:25;52.87;38.14;68.11;;
60503;Laerm;51448;51.660;5.824;2023-07-13T14:33:57;49.26;38.39;62.35;;
60503;Laerm;51448;51.660;5.824;2023-07-13T14:36:32;49.61;38.57;63.71;;
60503;Laerm;51448;51.660;5.824;2023-07-13T14:39:13;48.40;37.12;62.12;;
60503;Laerm;51448;51.660;5.824;2023-07-13T14:41:43;45.31;36.11;61.52;;
60503;Laerm;51448;51.660;5.824;2023-07-13T14:44:16;48.32;35.93;66.28;;
60503;Laerm;51448;51.660;5.824;2023-07-13T14:46:45;48.67;35.99;59.79;;
60503;Laerm;51448;51.660;5.824;2023-07-13T14:49:30;46.94;35.34;60.42;;
60503;Laerm;51448;51.660;5.824;2023-07-13T14:52:13;47.45;35.76;61.09;;